sensor_id;sensor_type;location;lat;lon;timestamp;pressure;altitude;pressure_sealevel;temperature;humidity
79129;BME280;68529;43.286;23.360;2023-08-06T00:02:17;97993.03;;;24.84;56.50
79129;BME280;68529;43.286;23.360;2023-08-06T00:04:42;97990.31;;;24.68;57.29
79129;BME280;68529;43.286;23.360;2023-08-06T00:07:08;97986.47;;;24.63;58.14
79129;BME280;68529;43.286;23.360;2023-08-06T00:09:33;97994.06;;;24.59;58.24
79129;BME280;68529;43.286;23.360;2023-08-06T00:11:58;98016.56;;;24.50;59.24
79129;BME280;68529;43.286;23.360;2023-08-06T00:14:24;98024.63;;;24.42;59.25
79129;BME280;68529;43.286;23.360;2023-08-06T00:16:49;98017.41;;;24.51;59.26
79129;BME280;68529;43.286;23.360;2023-08-06T00:19:14;98023.75;;;24.50;58.53
79129;BME280;68529;43.286;23.360;2023-08-06T00:21:40;98009.00;;;24.38;58.48
79129;BME280;68529;43.286;23.360;2023-08-06T00:24:05;98012.22;;;24.33;58.78
79129;BME280;68529;43.286;23.360;2023-08-06T00:26:30;98028.47;;;24.15;58.95
79129;BME280;68529;43.286;23.360;2023-08-06T00:28:56;98031.13;;;23.99;59.91
79129;BME280;68529;43.286;23.360;2023-08-06T00:31:21;98034.78;;;23.90;59.97
79129;BME280;68529;43.286;23.360;2023-08-06T00:33:46;98031.09;;;23.91;59.84
79129;BME280;68529;43.286;23.360;2023-08-06T00:36:12;98032.44;;;23.87;59.73
79129;BME280;68529;43.286;23.360;2023-08-06T00:38:37;98040.66;;;23.86;59.84
79129;BME280;68529;43.286;23.360;2023-08-06T00:41:03;98034.78;;;23.82;60.26
79129;BME280;68529;43.286;23.360;2023-08-06T00:43:28;98038.97;;;23.76;60.34
79129;BME280;68529;43.286;23.360;2023-08-06T00:45:53;98006.63;;;23.78;60.50
79129;BME280;68529;43.286;23.360;2023-08-06T00:48:19;97996.91;;;23.77;60.95
79129;BME280;68529;43.286;23.360;2023-08-06T00:50:45;97987.84;;;23.78;60.74
79129;BME280;68529;43.286;23.360;2023-08-06T00:53:11;97973.44;;;23.79;60.69
79129;BME280;68529;43.286;23.360;2023-08-06T00:55:37;97948.97;;;23.74;60.63
79129;BME280;68529;43.286;23.360;2023-08-06T00:58:02;97989.69;;;23.61;60.76
79129;BME280;68529;43.286;23.360;2023-08-06T01:00:28;97998.53;;;23.62;60.97
79129;BME280;68529;43.286;23.360;2023-08-06T01:02:54;97998.22;;;23.65;60.93
79129;BME280;68529;43.286;23.360;2023-08-06T01:05:20;97977.94;;;23.62;61.19
79129;BME280;68529;43.286;23.360;2023-08-06T01:13:16;97914.75;;;23.60;61.59
79129;BME280;68529;43.286;23.360;2023-08-06T01:15:48;97914.63;;;23.61;61.13
79129;BME280;68529;43.286;23.360;2023-08-06T01:18:14;97932.22;;;23.56;61.29
79129;BME280;68529;43.286;23.360;2023-08-06T01:20:40;97940.91;;;23.50;61.49
79129;BME280;68529;43.286;23.360;2023-08-06T01:23:05;97948.09;;;23.57;61.84
79129;BME280;68529;43.286;23.360;2023-08-06T01:25:39;97950.13;;;23.63;61.76
79129;BME280;68529;43.286;23.360;2023-08-06T01:28:24;97926.34;;;23.60;61.29
79129;BME280;68529;43.286;23.360;2023-08-06T01:30:55;97922.81;;;23.52;60.99
79129;BME280;68529;43.286;23.360;2023-08-06T01:33:22;97934.19;;;23.46;61.81
79129;BME280;68529;43.286;23.360;2023-08-06T01:35:49;97927.16;;;23.45;62.20
79129;BME280;68529;43.286;23.360;2023-08-06T01:38:15;97932.19;;;23.48;62.39
79129;BME280;68529;43.286;23.360;2023-08-06T01:40:40;97928.16;;;23.60;61.98
79129;BME280;68529;43.286;23.360;2023-08-06T01:43:06;97919.66;;;23.64;61.71
79129;BME280;68529;43.286;23.360;2023-08-06T01:45:31;97927.19;;;23.61;61.48
79129;BME280;68529;43.286;23.360;2023-08-06T01:47:56;97922.16;;;23.58;60.87
79129;BME280;68529;43.286;23.360;2023-08-06T01:50:22;97917.63;;;23.50;61.28
79129;BME280;68529;43.286;23.360;2023-08-06T01:52:47;97920.44;;;23.49;61.13
79129;BME280;68529;43.286;23.360;2023-08-06T01:55:12;97914.25;;;23.48;61.45
79129;BME280;68529;43.286;23.360;2023-08-06T01:57:38;97919.78;;;23.55;61.51
79129;BME280;68529;43.286;23.360;2023-08-06T02:00:04;97914.63;;;23.53;61.31
79129;BME280;68529;43.286;23.360;2023-08-06T02:02:29;97923.78;;;23.51;61.78
79129;BME280;68529;43.286;23.360;2023-08-06T02:04:55;97917.78;;;23.57;61.75
79129;BME280;68529;43.286;23.360;2023-08-06T02:07:20;97910.25;;;23.60;61.72
79129;BME280;68529;43.286;23.360;2023-08-06T02:09:45;97909.91;;;23.55;61.74
79129;BME280;68529;43.286;23.360;2023-08-06T02:12:11;97914.75;;;23.60;61.76
79129;BME280;68529;43.286;23.360;2023-08-06T02:14:36;97914.63;;;23.53;61.80
79129;BME280;68529;43.286;23.360;2023-08-06T02:17:01;97920.97;;;23.52;61.91
79129;BME280;68529;43.286;23.360;2023-08-06T02:19:27;97923.78;;;23.51;61.82
79129;BME280;68529;43.286;23.360;2023-08-06T02:21:52;97921.13;;;23.51;61.99
79129;BME280;68529;43.286;23.360;2023-08-06T02:24:17;97913.59;;;23.46;61.71
79129;BME280;68529;43.286;23.360;2023-08-06T02:26:43;97913.75;;;23.45;61.77
79129;BME280;68529;43.286;23.360;2023-08-06T02:29:08;97905.22;;;23.41;61.56
79129;BME280;68529;43.286;23.360;2023-08-06T02:31:34;97884.44;;;23.43;62.08
79129;BME280;68529;43.286;23.360;2023-08-06T02:33:59;97879.91;;;23.44;62.17
79129;BME280;68529;43.286;23.360;2023-08-06T02:36:24;97881.41;;;23.46;62.34
79129;BME280;68529;43.286;23.360;2023-08-06T02:38:52;97897.69;;;23.45;62.10
79129;BME280;68529;43.286;23.360;2023-08-06T02:41:17;97944.09;;;23.53;61.71
79129;BME280;68529;43.286;23.360;2023-08-06T02:43:43;97958.16;;;23.55;62.08
79129;BME280;68529;43.286;23.360;2023-08-06T02:46:08;97929.16;;;23.51;62.50
79129;BME280;68529;43.286;23.360;2023-08-06T02:48:33;97905.22;;;23.41;63.12
79129;BME280;68529;43.286;23.360;2023-08-06T02:50:59;97898.34;;;23.39;62.80
79129;BME280;68529;43.286;23.360;2023-08-06T02:53:25;97872.16;;;23.33;62.90
79129;BME280;68529;43.286;23.360;2023-08-06T02:55:50;97893.59;;;23.25;62.85
79129;BME280;68529;43.286;23.360;2023-08-06T02:58:17;97935.09;;;23.20;63.10
79129;BME280;68529;43.286;23.360;2023-08-06T03:00:43;97939.63;;;23.20;63.01
79129;BME280;68529;43.286;23.360;2023-08-06T03:03:09;97913.84;;;23.19;63.34
79129;BME280;68529;43.286;23.360;2023-08-06T03:05:35;97902.94;;;23.20;63.43
79129;BME280;68529;43.286;23.360;2023-08-06T03:08:00;97901.78;;;23.15;63.11
79129;BME280;68529;43.286;23.360;2023-08-06T03:10:25;97915.69;;;23.18;63.16
79129;BME280;68529;43.286;23.360;2023-08-06T03:12:51;97920.53;;;23.23;63.07
79129;BME280;68529;43.286;23.360;2023-08-06T03:15:16;97913.66;;;23.20;63.01
79129;BME280;68529;43.286;23.360;2023-08-06T03:33:22;97930.84;;;23.44;62.15
79129;BME280;68529;43.286;23.360;2023-08-06T03:35:48;97945.16;;;23.27;62.49
79129;BME280;68529;43.286;23.360;2023-08-06T03:38:13;97967.25;;;23.20;62.69
79129;BME280;68529;43.286;23.360;2023-08-06T03:40:38;97964.41;;;23.14;62.16
79129;BME280;68529;43.286;23.360;2023-08-06T03:43:04;97935.75;;;23.14;63.10
79129;BME280;68529;43.286;23.360;2023-08-06T03:45:29;97917.50;;;23.10;63.45
79129;BME280;68529;43.286;23.360;2023-08-06T03:47:54;97917.19;;;23.13;63.41
79129;BME280;68529;43.286;23.360;2023-08-06T03:50:20;97917.50;;;23.10;63.00
79129;BME280;68529;43.286;23.360;2023-08-06T03:52:45;97907.97;;;23.15;63.18
79129;BME280;68529;43.286;23.360;2023-08-06T03:55:10;97907.97;;;23.15;62.55
79129;BME280;68529;43.286;23.360;2023-08-06T03:57:36;97906.97;;;23.16;63.08
79129;BME280;68529;43.286;23.360;2023-08-06T04:00:02;97912.00;;;23.19;62.78
79129;BME280;68529;43.286;23.360;2023-08-06T04:02:28;97927.00;;;22.96;62.39
79129;BME280;68529;43.286;23.360;2023-08-06T04:04:54;97909.53;;;22.84;62.68
79129;BME280;68529;43.286;23.360;2023-08-06T04:07:19;97893.13;;;22.79;63.61
79129;BME280;68529;43.286;23.360;2023-08-06T04:09:52;97881.59;;;22.87;64.29
79129;BME280;68529;43.286;23.360;2023-08-06T04:12:18;97871.75;;;22.95;63.88
79129;BME280;68529;43.286;23.360;2023-08-06T04:14:43;97858.03;;;22.98;64.30
79129;BME280;68529;43.286;23.360;2023-08-06T04:17:08;97875.78;;;22.99;63.44
79129;BME280;68529;43.286;23.360;2023-08-06T04:19:34;97894.88;;;22.96;63.40
79129;BME280;68529;43.286;23.360;2023-08-06T04:21:59;97915.66;;;23.02;64.14
79129;BME280;68529;43.286;23.360;2023-08-06T04:24:24;97941.94;;;23.07;63.52
79129;BME280;68529;43.286;23.360;2023-08-06T04:26:50;97925.50;;;23.02;63.10
79129;BME280;68529;43.286;23.360;2023-08-06T04:29:15;97893.72;;;23.07;63.87
79129;BME280;68529;43.286;23.360;2023-08-06T04:31:41;97878.16;;;23.10;63.92
79129;BME280;68529;43.286;23.360;2023-08-06T04:34:06;97856.06;;;23.08;63.82
79129;BME280;68529;43.286;23.360;2023-08-06T04:36:33;97871.63;;;23.05;63.72
79129;BME280;68529;43.286;23.360;2023-08-06T04:38:58;97884.38;;;23.11;63.90
79129;BME280;68529;43.286;23.360;2023-08-06T04:41:23;97883.34;;;23.12;63.75
79129;BME280;68529;43.286;23.360;2023-08-06T04:43:49;97899.59;;;23.10;63.50
79129;BME280;68529;43.286;23.360;2023-08-06T04:46:14;97902.22;;;22.86;63.34
79129;BME280;68529;43.286;23.360;2023-08-06T04:48:39;97899.44;;;22.70;64.08
79129;BME280;68529;43.286;23.360;2023-08-06T04:51:05;97896.47;;;22.81;63.43
79129;BME280;68529;43.286;23.360;2023-08-06T04:53:30;97893.50;;;22.92;63.78
79129;BME280;68529;43.286;23.360;2023-08-06T04:55:56;97892.84;;;22.98;63.98
79129;BME280;68529;43.286;23.360;2023-08-06T04:58:21;97896.91;;;23.02;63.82
79129;BME280;68529;43.286;23.360;2023-08-06T05:00:46;97892.88;;;23.06;63.82
79129;BME280;68529;43.286;23.360;2023-08-06T05:03:12;97908.63;;;23.09;63.87
79129;BME280;68529;43.286;23.360;2023-08-06T05:05:40;97892.41;;;23.11;64.26
79129;BME280;68529;43.286;23.360;2023-08-06T05:08:06;97889.88;;;23.17;63.92
79129;BME280;68529;43.286;23.360;2023-08-06T05:10:31;97887.72;;;23.21;63.76
79129;BME280;68529;43.286;23.360;2023-08-06T05:12:56;97885.22;;;23.19;63.69
79129;BME280;68529;43.286;23.360;2023-08-06T05:15:22;97878.81;;;23.12;63.80
79129;BME280;68529;43.286;23.360;2023-08-06T05:17:47;97878.69;;;23.14;63.69
79129;BME280;68529;43.286;23.360;2023-08-06T05:20:13;97877.84;;;23.22;63.76
79129;BME280;68529;43.286;23.360;2023-08-06T05:22:38;97877.66;;;23.23;63.71
79129;BME280;68529;43.286;23.360;2023-08-06T05:25:04;97872.16;;;23.33;64.01
79129;BME280;68529;43.286;23.360;2023-08-06T05:27:29;97855.91;;;23.34;63.47
79129;BME280;68529;43.286;23.360;2023-08-06T05:29:55;97858.44;;;23.36;63.85
79129;BME280;68529;43.286;23.360;2023-08-06T05:32:22;97852.06;;;23.37;63.81
79129;BME280;68529;43.286;23.360;2023-08-06T05:34:47;97857.41;;;23.37;64.05
79129;BME280;68529;43.286;23.360;2023-08-06T05:37:12;97861.66;;;23.39;64.36
79129;BME280;68529;43.286;23.360;2023-08-06T05:39:38;97863.84;;;23.44;63.90
79129;BME280;68529;43.286;23.360;2023-08-06T05:42:03;97865.66;;;23.43;64.00
79129;BME280;68529;43.286;23.360;2023-08-06T05:44:29;97867.88;;;23.48;63.82
79129;BME280;68529;43.286;23.360;2023-08-06T05:46:54;97871.38;;;23.48;63.63
79129;BME280;68529;43.286;23.360;2023-08-06T05:49:19;97870.56;;;23.48;63.51
79129;BME280;68529;43.286;23.360;2023-08-06T05:51:45;97866.19;;;23.47;63.84
79129;BME280;68529;43.286;23.360;2023-08-06T05:54:10;97876.25;;;23.53;63.95
79129;BME280;68529;43.286;23.360;2023-08-06T05:56:35;97867.03;;;23.55;63.57
79129;BME280;68529;43.286;23.360;2023-08-06T05:59:01;97881.28;;;23.56;63.55
79129;BME280;68529;43.286;23.360;2023-08-06T06:01:26;97885.78;;;23.63;62.52
79129;BME280;68529;43.286;23.360;2023-08-06T06:03:52;97886.97;;;23.77;62.63
79129;BME280;68529;43.286;23.360;2023-08-06T06:06:17;97884.75;;;23.97;62.27
79129;BME280;68529;43.286;23.360;2023-08-06T06:08:44;97885.94;;;24.02;61.60
79129;BME280;68529;43.286;23.360;2023-08-06T06:11:09;97889.97;;;24.06;60.91
79129;BME280;68529;43.286;23.360;2023-08-06T06:13:35;97890.63;;;24.16;61.79
79129;BME280;68529;43.286;23.360;2023-08-06T06:16:00;97893.63;;;24.21;61.32
79129;BME280;68529;43.286;23.360;2023-08-06T06:18:25;97895.31;;;24.22;60.88
79129;BME280;68529;43.286;23.360;2023-08-06T06:20:51;97903.06;;;24.17;61.22
79129;BME280;68529;43.286;23.360;2023-08-06T06:23:16;97909.22;;;24.18;61.19
79129;BME280;68529;43.286;23.360;2023-08-06T06:25:42;97923.16;;;24.21;61.13
79129;BME280;68529;43.286;23.360;2023-08-06T06:28:08;97930.22;;;24.22;60.98
79129;BME280;68529;43.286;23.360;2023-08-06T06:30:34;97943.63;;;24.22;62.02
79129;BME280;68529;43.286;23.360;2023-08-06T06:33:00;97954.69;;;24.27;61.38
79129;BME280;68529;43.286;23.360;2023-08-06T06:35:25;97949.66;;;24.24;61.68
79129;BME280;68529;43.286;23.360;2023-08-06T06:37:50;97952.34;;;24.24;61.60
79129;BME280;68529;43.286;23.360;2023-08-06T06:40:16;97947.31;;;24.21;62.16
79129;BME280;68529;43.286;23.360;2023-08-06T06:42:42;97947.97;;;24.23;62.61
79129;BME280;68529;43.286;23.360;2023-08-06T06:45:08;97939.22;;;24.29;61.89
79129;BME280;68529;43.286;23.360;2023-08-06T06:47:33;97936.22;;;24.32;61.28
79129;BME280;68529;43.286;23.360;2023-08-06T06:49:59;97940.25;;;24.28;61.04
79129;BME280;68529;43.286;23.360;2023-08-06T06:52:24;97944.47;;;24.23;61.12
79129;BME280;68529;43.286;23.360;2023-08-06T06:54:49;97948.81;;;24.16;60.04
79129;BME280;68529;43.286;23.360;2023-08-06T06:57:15;97953.34;;;24.15;61.14
79129;BME280;68529;43.286;23.360;2023-08-06T06:59:40;97957.06;;;24.14;61.10
79129;BME280;68529;43.286;23.360;2023-08-06T07:02:06;97955.38;;;24.13;61.13
79129;BME280;68529;43.286;23.360;2023-08-06T07:04:31;97962.56;;;24.13;61.11
79129;BME280;68529;43.286;23.360;2023-08-06T07:06:56;97973.81;;;24.16;61.81
79129;BME280;68529;43.286;23.360;2023-08-06T07:09:22;97976.50;;;24.16;61.37
79129;BME280;68529;43.286;23.360;2023-08-06T07:11:47;97982.53;;;24.10;60.92
79129;BME280;68529;43.286;23.360;2023-08-06T07:14:13;97983.16;;;24.04;61.60
79129;BME280;68529;43.286;23.360;2023-08-06T07:16:39;97984.34;;;23.94;61.37
79129;BME280;68529;43.286;23.360;2023-08-06T07:19:05;97985.00;;;23.88;61.55
79129;BME280;68529;43.286;23.360;2023-08-06T07:21:31;97989.88;;;24.00;61.76
79129;BME280;68529;43.286;23.360;2023-08-06T07:23:56;97994.41;;;24.08;61.55
79129;BME280;68529;43.286;23.360;2023-08-06T07:26:22;97998.09;;;24.07;60.36
79129;BME280;68529;43.286;23.360;2023-08-06T07:28:47;97999.47;;;24.11;60.16
79129;BME280;68529;43.286;23.360;2023-08-06T07:31:13;97996.75;;;24.35;60.80
79129;BME280;68529;43.286;23.360;2023-08-06T07:33:38;97996.56;;;24.61;59.95
79129;BME280;68529;43.286;23.360;2023-08-06T07:36:14;97995.69;;;24.93;59.19
79129;BME280;68529;43.286;23.360;2023-08-06T07:38:40;97993.50;;;25.27;58.64
79129;BME280;68529;43.286;23.360;2023-08-06T07:41:05;97992.94;;;25.39;57.98
79129;BME280;68529;43.286;23.360;2023-08-06T07:43:31;97986.94;;;25.68;57.57
79129;BME280;68529;43.286;23.360;2023-08-06T07:46:00;97981.53;;;25.91;57.52
79129;BME280;68529;43.286;23.360;2023-08-06T07:48:26;97976.69;;;26.09;58.53
79129;BME280;68529;43.286;23.360;2023-08-06T07:50:55;97985.41;;;26.34;58.22
79129;BME280;68529;43.286;23.360;2023-08-06T07:53:21;97974.88;;;26.61;57.55
79129;BME280;68529;43.286;23.360;2023-08-06T07:55:52;97975.06;;;26.60;54.90
79129;BME280;68529;43.286;23.360;2023-08-06T07:58:19;97986.47;;;26.47;55.93
79129;BME280;68529;43.286;23.360;2023-08-06T08:00:45;97976.13;;;26.36;56.43
79129;BME280;68529;43.286;23.360;2023-08-06T08:03:14;97971.78;;;26.35;55.87
79129;BME280;68529;43.286;23.360;2023-08-06T08:05:40;97977.00;;;26.14;55.36
79129;BME280;68529;43.286;23.360;2023-08-06T08:08:06;97972.94;;;25.95;55.54
79129;BME280;68529;43.286;23.360;2023-08-06T08:10:32;97981.69;;;26.20;55.55
79129;BME280;68529;43.286;23.360;2023-08-06T08:12:57;97984.19;;;26.74;56.25
79129;BME280;68529;43.286;23.360;2023-08-06T08:15:24;97989.97;;;26.85;55.44
79129;BME280;68529;43.286;23.360;2023-08-06T08:17:51;97984.03;;;26.90;54.30
79129;BME280;68529;43.286;23.360;2023-08-06T08:20:17;97986.53;;;26.39;53.68
79129;BME280;68529;43.286;23.360;2023-08-06T08:22:42;97981.94;;;26.02;54.05
79129;BME280;68529;43.286;23.360;2023-08-06T08:25:09;97983.28;;;26.07;55.16
79129;BME280;68529;43.286;23.360;2023-08-06T08:27:36;97985.38;;;26.19;55.08
79129;BME280;68529;43.286;23.360;2023-08-06T08:30:01;97976.78;;;26.38;55.57
79129;BME280;68529;43.286;23.360;2023-08-06T08:32:26;97983.91;;;26.83;54.93
79129;BME280;68529;43.286;23.360;2023-08-06T08:34:52;97986.16;;;27.24;53.62
79129;BME280;68529;43.286;23.360;2023-08-06T08:37:18;97984.81;;;27.49;53.33
79129;BME280;68529;43.286;23.360;2023-08-06T08:39:44;97984.75;;;27.42;53.25
79129;BME280;68529;43.286;23.360;2023-08-06T08:42:10;97984.09;;;27.26;52.27
79129;BME280;68529;43.286;23.360;2023-08-06T08:44:36;97973.88;;;27.21;52.70
79129;BME280;68529;43.286;23.360;2023-08-06T08:47:06;97974.03;;;27.19;53.81
79129;BME280;68529;43.286;23.360;2023-08-06T08:49:31;97956.94;;;27.27;53.35
79129;BME280;68529;43.286;23.360;2023-08-06T08:51:59;97964.25;;;27.48;54.21
79129;BME280;68529;43.286;23.360;2023-08-06T08:54:27;97960.50;;;27.63;51.56
79129;BME280;68529;43.286;23.360;2023-08-06T08:56:53;97962.78;;;27.45;51.60
79129;BME280;68529;43.286;23.360;2023-08-06T08:59:20;97960.88;;;27.25;50.60
79129;BME280;68529;43.286;23.360;2023-08-06T09:01:46;97954.69;;;27.31;50.43
79129;BME280;68529;43.286;23.360;2023-08-06T09:04:16;97959.78;;;27.40;52.05
79129;BME280;68529;43.286;23.360;2023-08-06T09:06:42;97957.38;;;27.31;49.90
79129;BME280;68529;43.286;23.360;2023-08-06T09:09:25;97954.03;;;27.29;51.29
79129;BME280;68529;43.286;23.360;2023-08-06T09:11:51;97942.63;;;27.62;50.42
79129;BME280;68529;43.286;23.360;2023-08-06T09:14:17;97934.28;;;27.57;50.97
79129;BME280;68529;43.286;23.360;2023-08-06T09:16:43;97929.78;;;27.43;50.53
79129;BME280;68529;43.286;23.360;2023-08-06T09:19:10;97927.44;;;27.40;52.36
79129;BME280;68529;43.286;23.360;2023-08-06T09:21:38;97920.63;;;27.80;51.67
79129;BME280;68529;43.286;23.360;2023-08-06T09:24:11;97923.13;;;28.03;49.72
79129;BME280;68529;43.286;23.360;2023-08-06T09:26:38;97920.44;;;28.03;51.05
79129;BME280;68529;43.286;23.360;2023-08-06T09:29:07;97920.13;;;27.98;50.16
79129;BME280;68529;43.286;23.360;2023-08-06T09:31:46;97917.53;;;27.83;49.40
79129;BME280;68529;43.286;23.360;2023-08-06T09:34:20;97910.72;;;28.08;49.96
79129;BME280;68529;43.286;23.360;2023-08-06T09:36:52;97916.59;;;28.18;48.26
79129;BME280;68529;43.286;23.360;2023-08-06T09:39:18;97910.44;;;28.03;50.24
79129;BME280;68529;43.286;23.360;2023-08-06T09:41:45;97914.94;;;28.17;51.11
79129;BME280;68529;43.286;23.360;2023-08-06T09:44:20;97908.06;;;28.15;49.60
79129;BME280;68529;43.286;23.360;2023-08-06T09:46:50;97909.50;;;28.11;48.89
79129;BME280;68529;43.286;23.360;2023-08-06T09:49:18;97921.06;;;28.05;49.58
79129;BME280;68529;43.286;23.360;2023-08-06T09:51:44;97924.00;;;28.10;49.58
79129;BME280;68529;43.286;23.360;2023-08-06T09:54:12;97913.47;;;28.15;49.56
79129;BME280;68529;43.286;23.360;2023-08-06T09:56:38;97927.94;;;28.35;50.49
79129;BME280;68529;43.286;23.360;2023-08-06T09:59:06;97925.72;;;28.45;49.17
79129;BME280;68529;43.286;23.360;2023-08-06T10:01:33;97927.88;;;28.28;48.29
79129;BME280;68529;43.286;23.360;2023-08-06T10:04:00;97924.25;;;28.15;48.60
79129;BME280;68529;43.286;23.360;2023-08-06T10:06:26;97935.59;;;28.04;48.54
79129;BME280;68529;43.286;23.360;2023-08-06T10:08:53;97929.81;;;27.86;49.19
79129;BME280;68529;43.286;23.360;2023-08-06T10:11:21;97935.97;;;27.80;50.00
79129;BME280;68529;43.286;23.360;2023-08-06T10:13:47;97936.09;;;27.71;49.41
79129;BME280;68529;43.286;23.360;2023-08-06T10:16:14;97937.44;;;27.82;50.10
79129;BME280;68529;43.286;23.360;2023-08-06T10:18:41;97932.56;;;27.71;49.64
79129;BME280;68529;43.286;23.360;2023-08-06T10:21:08;97933.44;;;27.78;47.99
79129;BME280;68529;43.286;23.360;2023-08-06T10:23:36;97924.78;;;27.83;47.73
79129;BME280;68529;43.286;23.360;2023-08-06T10:26:04;97935.00;;;27.87;49.27
79129;BME280;68529;43.286;23.360;2023-08-06T10:28:47;97939.81;;;27.92;49.15
79129;BME280;68529;43.286;23.360;2023-08-06T10:31:12;97935.06;;;27.94;49.50
79129;BME280;68529;43.286;23.360;2023-08-06T10:33:47;97938.28;;;28.04;50.21
79129;BME280;68529;43.286;23.360;2023-08-06T10:36:14;97933.97;;;28.09;49.33
79129;BME280;68529;43.286;23.360;2023-08-06T10:38:50;97935.19;;;28.07;49.39
79129;BME280;68529;43.286;23.360;2023-08-06T10:41:33;97944.72;;;28.03;50.35
79129;BME280;68529;43.286;23.360;2023-08-06T10:44:09;97932.22;;;28.02;49.34
79129;BME280;68529;43.286;23.360;2023-08-06T10:46:35;97927.81;;;27.94;48.94
79129;BME280;68529;43.286;23.360;2023-08-06T10:49:03;97933.25;;;27.80;49.33
79129;BME280;68529;43.286;23.360;2023-08-06T10:51:30;97938.28;;;27.83;49.39
79129;BME280;68529;43.286;23.360;2023-08-06T10:53:56;97937.31;;;27.90;49.93
79129;BME280;68529;43.286;23.360;2023-08-06T10:56:24;97936.53;;;27.96;49.49
79129;BME280;68529;43.286;23.360;2023-08-06T10:58:56;97949.00;;;27.97;49.73
79129;BME280;68529;43.286;23.360;2023-08-06T11:01:23;97952.13;;;28.01;50.14
79129;BME280;68529;43.286;23.360;2023-08-06T11:03:51;97954.59;;;27.96;50.52
79129;BME280;68529;43.286;23.360;2023-08-06T11:06:19;97963.06;;;27.93;51.42
79129;BME280;68529;43.286;23.360;2023-08-06T11:08:50;97956.25;;;27.75;52.05
79129;BME280;68529;43.286;23.360;2023-08-06T11:11:17;97957.97;;;27.62;53.17
79129;BME280;68529;43.286;23.360;2023-08-06T11:13:44;97953.63;;;27.61;53.94
79129;BME280;68529;43.286;23.360;2023-08-06T11:16:12;97964.97;;;27.56;53.41
79129;BME280;68529;43.286;23.360;2023-08-06T11:18:39;97965.03;;;27.78;53.99
79129;BME280;68529;43.286;23.360;2023-08-06T11:21:05;97966.22;;;27.75;53.02
79129;BME280;68529;43.286;23.360;2023-08-06T11:23:30;97969.75;;;27.75;52.96
79129;BME280;68529;43.286;23.360;2023-08-06T11:25:57;97983.63;;;27.72;52.10
79129;BME280;68529;43.286;23.360;2023-08-06T11:28:23;97983.88;;;27.56;51.84
79129;BME280;68529;43.286;23.360;2023-08-06T11:30:49;97990.03;;;27.36;51.98
79129;BME280;68529;43.286;23.360;2023-08-06T11:33:20;97997.78;;;27.24;53.27
79129;BME280;68529;43.286;23.360;2023-08-06T11:35:47;98021.19;;;27.09;53.57
79129;BME280;68529;43.286;23.360;2023-08-06T11:38:13;98054.97;;;27.05;54.83
79129;BME280;68529;43.286;23.360;2023-08-06T11:40:39;98054.94;;;26.90;55.29
79129;BME280;68529;43.286;23.360;2023-08-06T11:43:05;98040.97;;;26.49;54.28
79129;BME280;68529;43.286;23.360;2023-08-06T11:45:31;98039.44;;;26.10;54.70
79129;BME280;68529;43.286;23.360;2023-08-06T11:47:56;98036.09;;;25.77;54.39
79129;BME280;68529;43.286;23.360;2023-08-06T11:50:26;98043.66;;;25.51;54.92
79129;BME280;68529;43.286;23.360;2023-08-06T11:53:00;98030.66;;;25.23;55.25
79129;BME280;68529;43.286;23.360;2023-08-06T11:55:27;98033.41;;;24.99;55.32
79129;BME280;68529;43.286;23.360;2023-08-06T11:57:54;98032.31;;;24.61;56.75
79129;BME280;68529;43.286;23.360;2023-08-06T12:00:19;98022.56;;;24.04;57.87
79129;BME280;68529;43.286;23.360;2023-08-06T12:02:48;98001.59;;;23.99;57.78
79129;BME280;68529;43.286;23.360;2023-08-06T12:05:19;97985.69;;;23.24;59.56
79129;BME280;68529;43.286;23.360;2023-08-06T12:07:51;97979.34;;;23.25;59.80
79129;BME280;68529;43.286;23.360;2023-08-06T12:10:17;97984.44;;;23.52;60.58
79129;BME280;68529;43.286;23.360;2023-08-06T12:12:45;97985.31;;;23.68;60.37
79129;BME280;68529;43.286;23.360;2023-08-06T12:15:10;97985.84;;;23.88;59.17
79129;BME280;68529;43.286;23.360;2023-08-06T12:17:36;97988.53;;;23.80;58.54
79129;BME280;68529;43.286;23.360;2023-08-06T12:20:03;97981.84;;;24.00;59.20
79129;BME280;68529;43.286;23.360;2023-08-06T12:22:30;97980.81;;;24.42;58.51
79129;BME280;68529;43.286;23.360;2023-08-06T12:25:00;97980.44;;;24.69;58.99
79129;BME280;68529;43.286;23.360;2023-08-06T12:27:26;97977.75;;;24.61;58.95
79129;BME280;68529;43.286;23.360;2023-08-06T12:29:52;97972.13;;;24.40;58.95
79129;BME280;68529;43.286;23.360;2023-08-06T12:32:17;97968.06;;;24.44;59.87
79129;BME280;68529;43.286;23.360;2023-08-06T12:34:43;97966.22;;;24.44;58.63
79129;BME280;68529;43.286;23.360;2023-08-06T12:37:09;97962.34;;;24.47;59.92
79129;BME280;68529;43.286;23.360;2023-08-06T12:39:35;97962.53;;;24.53;58.94
79129;BME280;68529;43.286;23.360;2023-08-06T12:42:04;97958.63;;;24.64;58.98
79129;BME280;68529;43.286;23.360;2023-08-06T12:44:30;97952.19;;;24.89;57.71
79129;BME280;68529;43.286;23.360;2023-08-06T12:46:55;97944.56;;;25.09;58.00
79129;BME280;68529;43.286;23.360;2023-08-06T12:49:21;97948.28;;;25.00;56.79
79129;BME280;68529;43.286;23.360;2023-08-06T12:51:47;97939.59;;;24.89;56.63
79129;BME280;68529;43.286;23.360;2023-08-06T12:54:13;97933.25;;;25.13;56.92
79129;BME280;68529;43.286;23.360;2023-08-06T12:56:39;97929.75;;;25.13;56.00
79129;BME280;68529;43.286;23.360;2023-08-06T12:59:04;97932.00;;;25.32;56.29
79129;BME280;68529;43.286;23.360;2023-08-06T13:01:30;97916.09;;;25.53;56.20
79129;BME280;68529;43.286;23.360;2023-08-06T13:03:55;97918.94;;;25.74;56.00
79129;BME280;68529;43.286;23.360;2023-08-06T13:06:20;97919.72;;;25.83;54.71
79129;BME280;68529;43.286;23.360;2023-08-06T13:08:46;97920.53;;;26.06;55.15